This is the latest recevied weather packets stored in our database for station/object BM2MWA-13. If no packets are shown the sender has not sent any weather packets the latest 10 day(s).
| Time | Temp. | Humidity | Pressure | Rain* | Wind** | Luminosity | Snow |
|---|---|---|---|---|---|---|---|
| 1777775823 | 29.44° C | 65% | 1006.3 hPa | 0 mm | - | - | - |
| 1777775223 | 29.44° C | 65% | 1006.4 hPa | 0 mm | - | - | - |
| 1777774624 | 28.89° C | 66% | 1006.6 hPa | 0 mm | - | - | - |
| 1777774023 | 28.33° C | 66% | 1006.7 hPa | 0 mm | - | - | - |
| 1777773423 | 27.78° C | 68% | 1006.7 hPa | 0 mm | - | - | - |
| 1777772823 | 27.22° C | 69% | 1007 hPa | 0 mm | - | - | - |
| 1777772223 | 27.22° C | 69% | 1007.1 hPa | 0 mm | - | - | - |
| 1777771624 | 27.22° C | 70% | 1006.9 hPa | 0 mm | - | - | - |
| 1777771024 | 27.22° C | 70% | 1006.9 hPa | 0 mm | - | - | - |
| 1777770423 | 26.67° C | 72% | 1006.8 hPa | 0 mm | - | - | - |
| 1777769824 | 26.11° C | 73% | 1006.7 hPa | 0 mm | - | - | - |
| 1777769224 | 26.11° C | 74% | 1006.5 hPa | 0 mm | - | - | - |
| 1777768624 | 25° C | 78% | 1006.2 hPa | 0 mm | - | - | - |
| 1777768024 | 25° C | 76% | 1006.2 hPa | 0 mm | - | - | - |
| 1777767423 | 24.44° C | 77% | 1006.3 hPa | 0 mm | - | - | - |
| 1777766824 | 24.44° C | 76% | 1006.5 hPa | 0 mm | - | - | - |
| 1777766223 | 24.44° C | 77% | 1006.5 hPa | 0 mm | - | - | - |
| 1777765623 | 23.89° C | 77% | 1006.3 hPa | 0 mm | - | - | - |
| 1777765024 | 23.89° C | 79% | 1006.3 hPa | 0 mm | - | - | - |
| 1777764424 | 23.89° C | 79% | 1006.2 hPa | 0 mm | - | - | - |
| 1777763824 | 23.33° C | 82% | 1006 hPa | 0 mm | - | - | - |
| 1777763224 | 23.33° C | 81% | 1006.1 hPa | 0 mm | - | - | - |
| 1777762623 | 23.33° C | 82% | 1005.9 hPa | 0 mm | - | - | - |
| 1777762024 | 23.33° C | 83% | 1005.8 hPa | 0 mm | - | - | - |
| 1777761423 | 22.78° C | 82% | 1005.7 hPa | 0 mm | - | - | - |
* Rain latest hour (hover to see other rain measurements)
** Current wind speed in m/s (hover to see current wind gust speed)